createdAt,value
2022-08-19T00:01:32.586Z,20.50
2022-08-19T00:04:07.696Z,20.40
2022-08-19T00:06:37.968Z,20.40
2022-08-19T00:09:07.926Z,20.40
2022-08-19T00:11:37.009Z,20.40
2022-08-19T00:14:06.237Z,20.40
2022-08-19T00:16:34.843Z,20.30
2022-08-19T00:19:02.922Z,20.30
2022-08-19T00:21:31.186Z,20.40
2022-08-19T00:24:01.159Z,20.30
2022-08-19T00:26:30.644Z,20.30
2022-08-19T00:28:58.690Z,20.30
2022-08-19T00:31:28.895Z,20.30
2022-08-19T00:33:56.929Z,20.30
2022-08-19T00:36:25.143Z,20.20
2022-08-19T00:38:54.375Z,20.20
2022-08-19T00:41:26.620Z,20.20
2022-08-19T00:44:06.307Z,20.20
2022-08-19T00:46:37.574Z,20.10
2022-08-19T00:49:11.758Z,19.90
2022-08-19T00:51:39.937Z,20.00
2022-08-19T00:54:08.074Z,19.80
2022-08-19T00:56:38.587Z,19.80
2022-08-19T00:59:10.545Z,19.80
2022-08-19T01:01:38.994Z,19.80
2022-08-19T01:04:07.401Z,19.70
2022-08-19T01:06:38.282Z,19.80
2022-08-19T01:09:07.267Z,19.80
2022-08-19T01:11:40.183Z,19.80
2022-08-19T01:14:09.293Z,19.80
2022-08-19T01:16:39.304Z,19.70
2022-08-19T01:19:15.221Z,19.70
2022-08-19T01:21:48.130Z,19.70
2022-08-19T01:24:17.863Z,19.60
2022-08-19T01:26:46.798Z,19.70
2022-08-19T01:29:14.917Z,19.60
2022-08-19T01:31:43.111Z,19.60
2022-08-19T01:34:11.390Z,19.60
2022-08-19T01:36:43.950Z,19.50
2022-08-19T01:39:18.624Z,19.50
2022-08-19T01:41:46.726Z,19.40
2022-08-19T01:44:19.154Z,19.40
2022-08-19T01:46:49.781Z,19.30
2022-08-19T01:49:20.670Z,19.30
2022-08-19T01:51:49.786Z,19.40
2022-08-19T01:54:27.001Z,19.40
2022-08-19T01:57:05.679Z,19.40
2022-08-19T01:59:37.423Z,19.40
2022-08-19T02:02:08.444Z,19.50
2022-08-19T02:04:36.811Z,19.30
2022-08-19T02:07:04.884Z,19.30
2022-08-19T02:09:34.937Z,19.20
2022-08-19T02:12:02.996Z,19.20
2022-08-19T02:14:31.079Z,19.20
2022-08-19T02:16:59.103Z,19.10
2022-08-19T02:19:27.036Z,19.00
2022-08-19T02:21:55.059Z,18.90
2022-08-19T02:24:23.039Z,18.90
2022-08-19T02:26:52.437Z,18.90
2022-08-19T02:29:20.483Z,18.90
2022-08-19T02:31:49.092Z,18.90
2022-08-19T02:34:17.108Z,18.90
2022-08-19T02:36:45.197Z,18.90
2022-08-19T02:39:22.414Z,18.90
2022-08-19T02:41:51.662Z,18.90
2022-08-19T02:44:29.586Z,18.90
2022-08-19T02:46:59.549Z,18.90
2022-08-19T02:49:27.494Z,18.90
2022-08-19T02:51:55.932Z,18.90
2022-08-19T02:54:24.065Z,19.00
2022-08-19T02:56:52.466Z,19.00
2022-08-19T02:59:22.858Z,19.00
2022-08-19T03:01:51.431Z,18.90
2022-08-19T03:04:20.217Z,18.90
2022-08-19T03:06:49.490Z,18.80
2022-08-19T03:09:19.080Z,18.70
2022-08-19T03:11:47.461Z,18.80
2022-08-19T03:14:19.030Z,18.80
2022-08-19T03:16:50.172Z,18.70
2022-08-19T03:19:19.887Z,18.70
2022-08-19T03:21:48.371Z,18.70
2022-08-19T03:24:18.358Z,18.80
2022-08-19T03:26:48.637Z,18.80
2022-08-19T03:29:30.166Z,18.70
2022-08-19T03:32:01.777Z,18.70
2022-08-19T03:34:31.912Z,18.70
2022-08-19T03:37:01.988Z,18.70
2022-08-19T03:39:30.247Z,18.70
2022-08-19T03:42:29.243Z,18.70
2022-08-19T03:44:48.996Z,18.70
2022-08-19T03:47:18.381Z,18.80
2022-08-19T03:49:47.327Z,18.80
2022-08-19T03:52:16.577Z,18.80
2022-08-19T03:54:44.558Z,18.60
2022-08-19T03:57:12.637Z,18.60
2022-08-19T03:59:41.498Z,18.60
2022-08-19T04:02:11.883Z,18.60
2022-08-19T04:04:44.227Z,18.60
2022-08-19T04:07:16.775Z,18.60
2022-08-19T04:09:45.402Z,18.70
2022-08-19T04:12:13.513Z,18.60
2022-08-19T04:14:42.319Z,18.60
2022-08-19T04:17:10.552Z,18.60
2022-08-19T04:19:39.561Z,18.60
2022-08-19T04:22:09.108Z,18.60
2022-08-19T04:24:37.696Z,18.80
2022-08-19T04:27:06.550Z,18.60
2022-08-19T04:29:35.457Z,18.60
2022-08-19T04:32:09.424Z,18.60
2022-08-19T04:35:01.197Z,18.70
2022-08-19T04:37:29.443Z,18.60
2022-08-19T04:40:20.176Z,18.70
2022-08-19T04:42:48.215Z,18.60
2022-08-19T04:45:17.398Z,18.50
2022-08-19T04:47:48.178Z,18.60
2022-08-19T04:50:27.455Z,18.70
2022-08-19T04:52:57.671Z,18.70
2022-08-19T04:55:27.437Z,18.70
2022-08-19T04:57:55.573Z,18.70
2022-08-19T05:00:23.810Z,18.70
2022-08-19T05:02:52.324Z,18.70
2022-08-19T05:05:20.862Z,18.70
2022-08-19T05:07:49.365Z,18.70
2022-08-19T05:10:19.082Z,18.80
2022-08-19T05:12:47.225Z,18.70
2022-08-19T05:15:15.340Z,18.70
2022-08-19T05:18:04.198Z,18.70
2022-08-19T05:20:49.801Z,18.80
2022-08-19T05:23:21.978Z,18.80
2022-08-19T05:25:52.682Z,18.90
2022-08-19T05:28:21.055Z,18.90
2022-08-19T05:30:49.567Z,18.90
2022-08-19T05:33:17.616Z,18.90
2022-08-19T05:35:47.152Z,18.80
2022-08-19T05:38:15.346Z,18.90
2022-08-19T05:40:43.785Z,18.90
2022-08-19T05:43:13.494Z,18.90
2022-08-19T05:45:43.053Z,18.90
2022-08-19T05:48:12.331Z,18.90
2022-08-19T05:50:41.310Z,19.00
2022-08-19T05:53:10.309Z,19.00
2022-08-19T05:55:46.287Z,19.00
2022-08-19T05:58:15.821Z,19.00
2022-08-19T06:00:45.627Z,19.00
2022-08-19T06:03:13.660Z,18.80
2022-08-19T06:05:51.756Z,19.00
2022-08-19T06:08:34.213Z,18.90
2022-08-19T06:11:19.731Z,19.00
2022-08-19T06:13:59.809Z,19.00
2022-08-19T06:16:28.871Z,19.00
2022-08-19T06:18:58.863Z,19.00
2022-08-19T06:21:30.059Z,19.10
2022-08-19T06:23:59.169Z,19.10
2022-08-19T06:26:27.533Z,19.10
2022-08-19T06:28:57.159Z,19.10
2022-08-19T06:31:27.150Z,19.00
2022-08-19T06:33:55.278Z,19.00
2022-08-19T06:36:28.126Z,19.00
2022-08-19T06:38:56.623Z,19.00
2022-08-19T06:41:24.701Z,19.00
2022-08-19T06:43:54.123Z,19.00
2022-08-19T06:46:25.951Z,19.00
2022-08-19T06:48:55.355Z,19.00
2022-08-19T06:51:25.471Z,19.10
2022-08-19T06:53:57.706Z,19.10
2022-08-19T06:56:34.657Z,19.10
2022-08-19T06:59:03.591Z,19.10
2022-08-19T07:01:38.479Z,19.10
2022-08-19T07:04:08.307Z,19.20
2022-08-19T07:06:44.033Z,19.20
2022-08-19T07:09:14.406Z,19.20
2022-08-19T07:11:48.032Z,19.40
2022-08-19T07:14:19.606Z,19.30
2022-08-19T07:16:52.501Z,19.30
2022-08-19T07:19:21.269Z,19.30
2022-08-19T07:21:50.470Z,19.30
2022-08-19T07:24:19.321Z,19.30
2022-08-19T07:26:51.923Z,19.30
2022-08-19T07:29:24.074Z,19.30
2022-08-19T07:31:56.981Z,19.30
2022-08-19T07:34:25.733Z,19.30
2022-08-19T07:36:54.408Z,19.30
2022-08-19T07:39:25.102Z,19.40
2022-08-19T07:41:53.551Z,19.40
2022-08-19T07:44:22.376Z,19.40
2022-08-19T07:46:53.418Z,19.40
2022-08-19T07:49:23.836Z,19.40
2022-08-19T07:51:54.360Z,19.30
2022-08-19T07:54:24.161Z,19.30
2022-08-19T07:56:53.792Z,19.40
2022-08-19T07:59:22.377Z,19.40
2022-08-19T08:01:51.224Z,19.40
2022-08-19T08:04:37.917Z,19.40
2022-08-19T08:07:25.457Z,19.40
2022-08-19T08:10:03.396Z,19.50
2022-08-19T08:12:36.228Z,19.70
2022-08-19T08:15:12.778Z,19.60
2022-08-19T08:17:49.109Z,19.60
2022-08-19T08:20:18.828Z,19.60
2022-08-19T08:23:06.754Z,19.50
2022-08-19T08:25:36.404Z,19.50
2022-08-19T08:28:05.860Z,19.60
2022-08-19T08:30:36.862Z,19.70
2022-08-19T08:33:06.353Z,19.70
2022-08-19T08:35:34.458Z,19.80
2022-08-19T08:38:05.910Z,19.80
2022-08-19T08:40:41.652Z,19.90
2022-08-19T08:43:15.955Z,19.80
2022-08-19T08:45:53.558Z,19.80
2022-08-19T08:48:33.545Z,19.80
2022-08-19T08:51:07.040Z,19.90
2022-08-19T08:53:41.923Z,20.00
2022-08-19T08:56:14.013Z,20.00
2022-08-19T08:58:54.716Z,19.90
2022-08-19T09:01:23.406Z,19.80
2022-08-19T09:03:51.884Z,19.70
2022-08-19T09:06:30.399Z,19.60
2022-08-19T09:09:11.720Z,19.60
2022-08-19T09:11:57.624Z,19.50
2022-08-19T09:14:51.098Z,19.40
2022-08-19T09:17:20.475Z,19.50
2022-08-19T09:19:53.990Z,19.50
2022-08-19T09:22:25.613Z,19.60
2022-08-19T09:24:56.786Z,19.40
2022-08-19T09:27:42.117Z,19.50
2022-08-19T09:30:15.924Z,19.60
2022-08-19T09:32:45.045Z,19.70
2022-08-19T09:35:13.724Z,19.70
2022-08-19T09:37:41.897Z,19.80
2022-08-19T09:40:15.359Z,19.70
2022-08-19T09:42:49.630Z,19.60
2022-08-19T09:45:22.500Z,19.50
2022-08-19T09:47:53.857Z,19.70
2022-08-19T09:50:23.925Z,19.80
2022-08-19T09:52:55.719Z,19.80
2022-08-19T09:55:31.455Z,19.80
2022-08-19T09:58:01.465Z,19.70
2022-08-19T10:00:29.477Z,19.60
2022-08-19T10:02:57.504Z,19.60
2022-08-19T10:05:43.184Z,19.60
2022-08-19T10:08:13.180Z,19.60
2022-08-19T10:10:46.243Z,19.60
2022-08-19T10:13:16.459Z,19.60
2022-08-19T10:15:47.114Z,19.60
2022-08-19T10:18:16.660Z,19.60
2022-08-19T10:20:51.280Z,19.60
2022-08-19T10:23:21.311Z,19.50
2022-08-19T10:25:52.356Z,19.60
2022-08-19T10:28:20.390Z,19.50
2022-08-19T10:30:49.016Z,19.50
2022-08-19T10:33:38.013Z,19.60
2022-08-19T10:36:08.272Z,19.70
2022-08-19T10:38:36.783Z,19.70
2022-08-19T10:41:17.400Z,19.70
2022-08-19T10:43:47.018Z,19.60
2022-08-19T10:46:17.357Z,19.50
2022-08-19T10:48:47.269Z,19.50
2022-08-19T10:51:32.914Z,19.50
2022-08-19T10:54:03.437Z,19.60
2022-08-19T10:56:53.804Z,19.60
2022-08-19T10:59:26.808Z,19.60
2022-08-19T11:01:56.740Z,19.70
2022-08-19T11:04:28.934Z,19.70
2022-08-19T11:06:58.398Z,19.70
2022-08-19T11:09:33.900Z,19.80
2022-08-19T11:12:04.889Z,19.70
2022-08-19T11:14:34.895Z,19.70
2022-08-19T11:17:03.863Z,19.80
2022-08-19T11:19:32.588Z,19.80
2022-08-19T11:22:03.828Z,19.90
2022-08-19T11:24:33.690Z,19.80
2022-08-19T11:27:10.178Z,19.90
2022-08-19T11:29:39.958Z,19.70
2022-08-19T11:32:11.136Z,19.70
2022-08-19T11:34:39.306Z,19.70
2022-08-19T11:37:09.698Z,19.70
2022-08-19T11:39:38.759Z,19.60
2022-08-19T11:42:23.698Z,19.60
2022-08-19T11:44:51.920Z,19.60
2022-08-19T11:47:20.179Z,19.60
2022-08-19T11:49:48.649Z,19.60
2022-08-19T11:52:16.817Z,19.60
2022-08-19T11:54:44.871Z,19.50
2022-08-19T11:57:17.715Z,19.50
2022-08-19T11:59:50.742Z,19.60
2022-08-19T12:02:20.003Z,19.50
2022-08-19T12:04:48.449Z,19.50
2022-08-19T12:07:17.010Z,19.50
2022-08-19T12:09:45.942Z,19.50
2022-08-19T12:12:18.251Z,19.40
2022-08-19T12:14:47.572Z,19.50
2022-08-19T12:17:16.240Z,19.50
2022-08-19T12:19:44.500Z,19.50
2022-08-19T12:22:12.480Z,19.40
2022-08-19T12:24:40.517Z,19.40
2022-08-19T12:27:12.599Z,19.40
2022-08-19T12:29:42.528Z,19.40
2022-08-19T12:32:12.177Z,19.40
2022-08-19T12:34:41.152Z,19.40
2022-08-19T12:37:09.749Z,19.40
2022-08-19T12:39:40.508Z,19.40
2022-08-19T12:42:09.825Z,19.40
2022-08-19T12:44:41.634Z,19.40
2022-08-19T12:47:14.663Z,19.50
2022-08-19T12:49:54.022Z,19.60
2022-08-19T12:52:24.523Z,19.60
2022-08-19T12:54:54.544Z,19.60
2022-08-19T12:57:31.556Z,19.60
2022-08-19T13:00:04.632Z,19.60
2022-08-19T13:02:38.535Z,19.60
2022-08-19T13:05:09.617Z,19.60
2022-08-19T13:07:39.475Z,19.70
2022-08-19T13:10:09.323Z,19.60
2022-08-19T13:12:37.829Z,19.70
2022-08-19T13:15:10.891Z,19.70
2022-08-19T13:17:42.093Z,19.70
2022-08-19T13:20:12.178Z,19.90
2022-08-19T13:22:40.770Z,19.80
2022-08-19T13:25:09.925Z,19.70
2022-08-19T13:27:39.063Z,19.70
2022-08-19T13:30:27.586Z,19.70
2022-08-19T13:33:16.660Z,19.70
2022-08-19T13:35:48.590Z,19.70
2022-08-19T13:38:18.453Z,19.80
2022-08-19T13:40:47.333Z,19.70
2022-08-19T13:43:22.879Z,19.70
2022-08-19T13:45:53.710Z,19.80
2022-08-19T13:48:24.501Z,19.80
2022-08-19T13:50:52.549Z,19.90
2022-08-19T13:53:21.076Z,20.10
2022-08-19T13:55:50.884Z,20.00
2022-08-19T13:58:19.316Z,20.00
2022-08-19T14:00:49.284Z,19.90
2022-08-19T14:03:17.449Z,19.90
2022-08-19T14:05:47.088Z,19.90
2022-08-19T14:08:15.160Z,19.80
2022-08-19T14:10:45.243Z,19.80
2022-08-19T14:13:16.734Z,19.70
2022-08-19T14:15:45.447Z,19.80
2022-08-19T14:18:14.036Z,19.70
2022-08-19T14:20:42.892Z,19.70
2022-08-19T14:23:13.239Z,19.80
2022-08-19T14:25:41.365Z,19.80
2022-08-19T14:28:09.646Z,19.80
2022-08-19T14:30:39.190Z,19.80
2022-08-19T14:33:09.456Z,19.80
2022-08-19T14:35:38.418Z,19.90
2022-08-19T14:38:08.221Z,19.90
2022-08-19T14:40:37.752Z,19.90
2022-08-19T14:43:06.610Z,19.90
2022-08-19T14:45:37.965Z,19.90
2022-08-19T14:48:06.596Z,20.00
2022-08-19T14:50:35.187Z,20.10
2022-08-19T14:53:12.379Z,20.20
2022-08-19T14:55:45.751Z,20.20
2022-08-19T14:58:28.964Z,20.20
2022-08-19T15:00:59.439Z,20.20
2022-08-19T15:03:28.092Z,20.20
2022-08-19T15:05:57.503Z,20.20
2022-08-19T15:08:26.454Z,20.30
2022-08-19T15:10:58.224Z,20.40
2022-08-19T15:13:28.243Z,20.40
2022-08-19T15:15:57.194Z,20.50
2022-08-19T15:18:25.743Z,20.50
2022-08-19T15:20:53.969Z,20.50
2022-08-19T15:23:23.043Z,20.60
2022-08-19T15:25:54.440Z,20.60
2022-08-19T15:28:24.262Z,20.60
2022-08-19T15:30:52.906Z,20.60
2022-08-19T15:33:21.596Z,20.60
2022-08-19T15:35:52.023Z,20.60
2022-08-19T15:38:22.045Z,20.70
2022-08-19T15:40:51.507Z,20.70
2022-08-19T15:43:22.361Z,20.70
2022-08-19T15:45:51.722Z,20.80
2022-08-19T15:48:19.863Z,20.70
2022-08-19T15:50:47.862Z,20.70
2022-08-19T15:53:15.869Z,20.70
2022-08-19T15:55:45.718Z,20.70
2022-08-19T15:58:35.419Z,20.70
2022-08-19T16:01:29.978Z,20.70
2022-08-19T16:04:19.793Z,20.70
2022-08-19T16:06:50.018Z,20.70
2022-08-19T16:09:24.920Z,20.80
2022-08-19T16:12:01.194Z,20.80
2022-08-19T16:14:32.088Z,20.80
2022-08-19T16:17:02.020Z,20.90
2022-08-19T16:19:30.095Z,21.00
2022-08-19T16:21:58.489Z,21.10
2022-08-19T16:24:28.316Z,21.20
2022-08-19T16:26:56.917Z,21.20
2022-08-19T16:29:25.854Z,21.30
2022-08-19T16:32:04.659Z,21.30
2022-08-19T16:34:33.767Z,21.30
2022-08-19T16:37:02.638Z,21.40
2022-08-19T16:39:30.733Z,21.50
2022-08-19T16:41:58.814Z,21.30
2022-08-19T16:44:27.025Z,21.30
2022-08-19T16:46:59.568Z,21.50
2022-08-19T16:49:53.779Z,21.50
2022-08-19T16:52:19.896Z,21.40
2022-08-19T16:54:49.037Z,21.30
2022-08-19T16:57:17.136Z,21.30
2022-08-19T16:59:48.941Z,21.30
2022-08-19T17:02:18.091Z,21.20
2022-08-19T17:04:57.274Z,21.50
2022-08-19T17:07:26.532Z,21.20
2022-08-19T17:09:55.274Z,21.10
2022-08-19T17:12:27.348Z,21.00
2022-08-19T17:14:59.668Z,21.00
2022-08-19T17:17:29.416Z,21.00
2022-08-19T17:20:00.290Z,20.90
2022-08-19T17:22:28.839Z,20.90
2022-08-19T17:24:58.373Z,20.90
2022-08-19T17:27:31.352Z,20.90
2022-08-19T17:30:01.154Z,20.80
2022-08-19T17:32:29.460Z,21.00
2022-08-19T17:34:58.878Z,20.90
2022-08-19T17:37:27.127Z,20.80
2022-08-19T17:39:55.553Z,20.80
2022-08-19T17:42:23.614Z,20.80
2022-08-19T17:44:51.653Z,20.90
2022-08-19T17:47:21.031Z,20.80
2022-08-19T17:49:49.049Z,20.90
2022-08-19T17:52:18.493Z,20.80
2022-08-19T17:54:47.067Z,20.80
2022-08-19T17:57:15.338Z,20.70
2022-08-19T17:59:43.321Z,20.70
2022-08-19T18:02:12.902Z,20.70
2022-08-19T18:04:45.552Z,20.70
2022-08-19T18:07:21.373Z,20.70
2022-08-19T18:09:52.608Z,20.80
2022-08-19T18:12:26.495Z,20.90
2022-08-19T18:14:54.921Z,20.70
2022-08-19T18:17:23.371Z,20.70
2022-08-19T18:19:51.680Z,20.90
2022-08-19T18:22:27.044Z,20.90
2022-08-19T18:24:56.084Z,20.70
2022-08-19T18:27:24.465Z,20.60
2022-08-19T18:29:52.516Z,20.60
2022-08-19T18:32:24.010Z,20.50
2022-08-19T18:34:53.171Z,20.50
2022-08-19T18:37:21.982Z,20.60
2022-08-19T18:40:08.942Z,20.80
2022-08-19T18:42:54.895Z,20.60
2022-08-19T18:45:43.664Z,20.60
2022-08-19T18:48:29.766Z,20.50
2022-08-19T18:50:58.970Z,20.50
2022-08-19T18:53:30.370Z,20.50
2022-08-19T18:55:59.945Z,20.40
2022-08-19T18:58:32.388Z,20.40
2022-08-19T19:01:02.854Z,20.30
2022-08-19T19:03:30.939Z,20.40
2022-08-19T19:05:59.556Z,20.50
2022-08-19T19:08:28.154Z,20.30
2022-08-19T19:10:58.927Z,20.30
2022-08-19T19:13:29.398Z,20.30
2022-08-19T19:15:57.428Z,20.40
2022-08-19T19:18:25.482Z,20.40
2022-08-19T19:20:53.657Z,20.50
2022-08-19T19:23:22.535Z,20.50
2022-08-19T19:25:52.254Z,20.50
2022-08-19T19:28:27.785Z,20.50
2022-08-19T19:30:58.947Z,20.60
2022-08-19T19:33:27.236Z,20.60
2022-08-19T19:35:55.579Z,20.60
2022-08-19T19:38:23.599Z,20.50
2022-08-19T19:40:51.569Z,20.50
2022-08-19T19:43:19.566Z,20.50
2022-08-19T19:45:49.432Z,20.40
2022-08-19T19:48:19.027Z,20.30
2022-08-19T19:50:54.087Z,20.50
2022-08-19T19:53:26.087Z,20.30
2022-08-19T19:55:57.676Z,20.30
2022-08-19T19:58:28.443Z,20.20
2022-08-19T20:00:57.618Z,20.20
2022-08-19T20:03:27.191Z,20.20
2022-08-19T20:05:58.184Z,20.10
2022-08-19T20:08:44.060Z,20.10
2022-08-19T20:11:16.415Z,20.00
2022-08-19T20:13:44.469Z,20.00
2022-08-19T20:16:12.519Z,19.90
2022-08-19T20:18:43.986Z,19.90
2022-08-19T20:21:12.446Z,19.90
2022-08-19T20:23:40.668Z,19.90
2022-08-19T20:26:15.652Z,20.00
2022-08-19T20:29:08.887Z,20.00
2022-08-19T20:31:57.675Z,19.90
2022-08-19T20:34:28.987Z,19.90
2022-08-19T20:36:57.115Z,19.90
2022-08-19T20:39:25.356Z,19.90
2022-08-19T20:41:53.989Z,19.90
2022-08-19T20:44:22.031Z,19.90
2022-08-19T20:46:54.468Z,19.90
2022-08-19T20:49:26.977Z,19.90
2022-08-19T20:51:57.107Z,19.90
2022-08-19T20:54:25.439Z,19.80
2022-08-19T20:56:53.672Z,19.80
2022-08-19T20:59:22.330Z,19.90
2022-08-19T21:01:51.798Z,19.80
2022-08-19T21:04:20.047Z,19.90
2022-08-19T21:06:48.303Z,19.80
2022-08-19T21:09:17.650Z,19.70
2022-08-19T21:11:45.740Z,19.60
2022-08-19T21:14:13.900Z,19.60
2022-08-19T21:16:41.933Z,19.60
2022-08-19T21:19:09.982Z,19.60
2022-08-19T21:21:38.005Z,19.60
2022-08-19T21:24:06.317Z,19.60
2022-08-19T21:26:35.815Z,19.60
2022-08-19T21:29:03.838Z,19.70
2022-08-19T21:31:31.913Z,19.60
2022-08-19T21:34:00.917Z,19.60
2022-08-19T21:36:29.053Z,19.50
2022-08-19T21:38:57.098Z,19.50
2022-08-19T21:41:25.185Z,19.50
2022-08-19T21:43:54.555Z,19.50
2022-08-19T21:46:22.716Z,19.50
2022-08-19T21:48:50.790Z,19.60
2022-08-19T21:51:18.938Z,19.60
2022-08-19T21:53:49.437Z,19.60
2022-08-19T21:56:21.173Z,19.60
2022-08-19T21:58:49.279Z,19.60
2022-08-19T22:01:18.721Z,19.60
2022-08-19T22:03:46.773Z,19.80
2022-08-19T22:06:14.834Z,19.60
2022-08-19T22:08:44.674Z,19.60
2022-08-19T22:11:13.168Z,19.60
2022-08-19T22:13:41.400Z,19.60
2022-08-19T22:16:10.774Z,19.90
2022-08-19T22:18:40.107Z,19.60
2022-08-19T22:21:11.965Z,19.60
2022-08-19T22:23:41.646Z,19.70
2022-08-19T22:26:12.453Z,19.60
2022-08-19T22:28:40.858Z,19.60
2022-08-19T22:31:09.507Z,19.70
2022-08-19T22:33:39.134Z,19.70
2022-08-19T22:36:08.626Z,19.70
2022-08-19T22:38:38.304Z,19.70
2022-08-19T22:41:08.023Z,19.60
2022-08-19T22:43:36.907Z,19.70
2022-08-19T22:46:15.045Z,19.60
2022-08-19T22:48:48.210Z,19.60
2022-08-19T22:51:41.928Z,19.60
2022-08-19T22:54:09.953Z,19.60
2022-08-19T22:56:38.111Z,19.60
2022-08-19T22:59:08.473Z,19.60
2022-08-19T23:01:37.069Z,19.60
2022-08-19T23:04:06.640Z,19.50
2022-08-19T23:06:36.448Z,19.50
2022-08-19T23:09:08.281Z,19.60
2022-08-19T23:11:41.737Z,19.60
2022-08-19T23:14:12.495Z,19.50
2022-08-19T23:16:41.934Z,19.50
2022-08-19T23:19:12.426Z,19.50
2022-08-19T23:21:41.247Z,19.50
2022-08-19T23:24:10.051Z,19.40
2022-08-19T23:26:38.174Z,19.50
2022-08-19T23:29:24.414Z,19.50
2022-08-19T23:31:52.647Z,19.50
2022-08-19T23:34:22.022Z,19.50
2022-08-19T23:36:50.553Z,19.50
2022-08-19T23:39:19.330Z,19.60
2022-08-19T23:41:47.501Z,19.60
2022-08-19T23:44:15.619Z,19.60
2022-08-19T23:46:54.324Z,19.50
2022-08-19T23:49:25.982Z,19.50
2022-08-19T23:51:55.670Z,19.50
2022-08-19T23:54:34.406Z,19.40
2022-08-19T23:57:14.231Z,19.40
2022-08-19T23:59:45.269Z,19.40
